createdAt,value
2022-12-28T00:01:12.614Z,100070.51
2022-12-28T00:06:21.233Z,100070.02
2022-12-28T00:11:31.039Z,100065.90
2022-12-28T00:16:40.824Z,100057.69
2022-12-28T00:21:48.630Z,100050.67
2022-12-28T00:26:57.355Z,100050.92
2022-12-28T00:32:04.877Z,100053.55
2022-12-28T00:37:13.346Z,100055.30
2022-12-28T00:42:20.859Z,100052.73
2022-12-28T00:47:28.608Z,100053.84
2022-12-28T00:52:35.813Z,100061.54
2022-12-28T00:57:43.317Z,100065.56
2022-12-28T01:02:50.982Z,100064.73
2022-12-28T01:08:00.567Z,100067.05
2022-12-28T01:13:07.998Z,100066.67
2022-12-28T01:18:15.409Z,100065.08
2022-12-28T01:23:22.832Z,100074.15
2022-12-28T01:28:29.567Z,100075.50
2022-12-28T01:33:37.308Z,100072.70
2022-12-28T01:38:45.412Z,100065.59
2022-12-28T01:44:23.574Z,100057.82
2022-12-28T01:49:31.453Z,100055.13
2022-12-28T01:54:44.320Z,100053.45
2022-12-28T01:59:57.641Z,100046.73
2022-12-28T02:05:05.942Z,100039.82
2022-12-28T02:10:42.505Z,100034.51
2022-12-28T02:15:41.117Z,100027.05
2022-12-28T02:21:07.671Z,100024.70
2022-12-28T02:26:53.576Z,100017.29
2022-12-28T02:32:11.967Z,100027.23
2022-12-28T02:42:49.312Z,100026.27
2022-12-28T02:48:14.143Z,100018.43
2022-12-28T02:53:48.792Z,100014.17
2022-12-28T02:59:31.192Z,100011.48
2022-12-28T03:04:56.986Z,99997.61
2022-12-28T03:10:12.937Z,99981.77
2022-12-28T03:15:30.840Z,99978.90
2022-12-28T03:20:56.221Z,99968.27
2022-12-28T03:26:23.757Z,99967.85
2022-12-28T03:31:36.208Z,99960.48
2022-12-28T03:36:58.486Z,99957.90
2022-12-28T03:42:33.692Z,99957.39
2022-12-28T03:47:45.530Z,99960.59
2022-12-28T03:52:54.468Z,99966.69
2022-12-28T03:58:01.553Z,99967.67
2022-12-28T04:03:09.039Z,99970.34
2022-12-28T04:08:16.163Z,99960.60
2022-12-28T04:13:23.569Z,99955.36
2022-12-28T04:18:33.052Z,99955.52
2022-12-28T04:23:40.422Z,99954.61
2022-12-28T04:28:48.050Z,99945.98
2022-12-28T04:33:55.373Z,99939.96
2022-12-28T04:39:03.120Z,99943.38
2022-12-28T04:44:10.660Z,99934.45
2022-12-28T04:49:17.962Z,99929.83
2022-12-28T04:54:25.357Z,99932.53
2022-12-28T04:59:32.985Z,99926.66
2022-12-28T05:04:40.706Z,99908.56
2022-12-28T05:09:48.300Z,99903.64
2022-12-28T05:14:55.931Z,99909.54
2022-12-28T05:20:04.199Z,99907.27
2022-12-28T05:25:12.658Z,99901.27
2022-12-28T05:30:21.364Z,99904.17
2022-12-28T05:35:28.718Z,99913.70
2022-12-28T05:40:35.999Z,99910.11
2022-12-28T05:45:43.304Z,99895.96
2022-12-28T05:50:49.020Z,99896.28
2022-12-28T05:56:00.979Z,99897.58
2022-12-28T06:01:11.956Z,99893.27
2022-12-28T06:06:21.056Z,99881.13
2022-12-28T06:11:30.674Z,99879.73
2022-12-28T06:16:43.465Z,99880.34
2022-12-28T06:21:51.121Z,99873.05
2022-12-28T06:26:59.129Z,99879.71
2022-12-28T06:32:06.965Z,99877.01
2022-12-28T06:37:14.664Z,99871.02
2022-12-28T06:42:21.907Z,99867.66
2022-12-28T06:47:27.717Z,99861.23
2022-12-28T06:52:35.434Z,99857.52
2022-12-28T06:57:43.159Z,99858.01
2022-12-28T07:02:50.691Z,99844.02
2022-12-28T07:07:57.995Z,99840.39
2022-12-28T07:13:04.513Z,99835.46
2022-12-28T07:18:11.857Z,99824.58
2022-12-28T07:23:19.165Z,99819.52
2022-12-28T07:28:26.723Z,99811.77
2022-12-28T07:33:34.048Z,99808.70
2022-12-28T07:38:40.039Z,99806.42
2022-12-28T07:43:48.402Z,99807.17
2022-12-28T07:48:57.067Z,99804.25
2022-12-28T07:54:05.181Z,99798.81
2022-12-28T07:59:14.607Z,99790.81
2022-12-28T08:04:22.062Z,99789.46
2022-12-28T08:09:29.242Z,99786.23
2022-12-28T08:14:36.677Z,99792.31
2022-12-28T08:19:44.693Z,99787.23
2022-12-28T08:24:52.092Z,99784.38
2022-12-28T08:29:59.604Z,99787.48
2022-12-28T08:35:08.881Z,99785.59
2022-12-28T08:40:19.354Z,99785.23
2022-12-28T08:45:29.025Z,99786.95
2022-12-28T08:50:37.512Z,99788.32
2022-12-28T08:55:44.930Z,99795.34
2022-12-28T09:00:52.235Z,99800.05
2022-12-28T09:06:00.036Z,99804.20
2022-12-28T09:11:09.251Z,99798.04
2022-12-28T09:16:19.348Z,99786.33
2022-12-28T09:21:28.717Z,99786.13
2022-12-28T09:26:39.722Z,99785.20
2022-12-28T09:31:46.952Z,99784.95
2022-12-28T09:36:52.871Z,99779.79
2022-12-28T09:42:03.759Z,99783.97
2022-12-28T09:47:20.687Z,99779.20
2022-12-28T09:52:32.871Z,99776.32
2022-12-28T09:57:44.613Z,99764.86
2022-12-28T10:02:55.910Z,99754.86
2022-12-28T10:08:03.754Z,99755.03
2022-12-28T10:13:52.983Z,99739.95
2022-12-28T10:18:47.451Z,99735.98
2022-12-28T10:24:29.862Z,99735.13
2022-12-28T10:29:27.089Z,99740.55
2022-12-28T10:34:36.663Z,99728.73
2022-12-28T10:39:52.356Z,99726.02
2022-12-28T10:45:07.241Z,99724.94
2022-12-28T10:50:41.880Z,99717.75
2022-12-28T10:55:49.499Z,99713.06
2022-12-28T11:00:59.885Z,99701.89
2022-12-28T11:06:26.362Z,99688.27
2022-12-28T11:11:35.367Z,99669.92
2022-12-28T11:16:43.890Z,99660.45
2022-12-28T11:21:51.635Z,99645.52
2022-12-28T11:26:58.883Z,99644.89
2022-12-28T11:32:13.762Z,99638.67
2022-12-28T11:37:21.574Z,99629.25
2022-12-28T11:42:55.461Z,99615.28
2022-12-28T11:48:47.075Z,99609.45
2022-12-28T11:54:00.745Z,99598.56
2022-12-28T11:59:23.810Z,99588.25
2022-12-28T12:04:37.579Z,99583.11
2022-12-28T12:09:47.586Z,99580.42
2022-12-28T12:15:02.467Z,99579.86
2022-12-28T12:20:18.696Z,99565.83
2022-12-28T12:25:30.477Z,99557.89
2022-12-28T12:30:38.977Z,99549.73
2022-12-28T12:36:03.879Z,99538.13
2022-12-28T12:41:26.199Z,99532.08
2022-12-28T12:47:05.596Z,99518.52
2022-12-28T12:52:26.111Z,99512.15
2022-12-28T12:57:43.803Z,99502.68
2022-12-28T13:03:16.580Z,99498.42
2022-12-28T13:08:29.513Z,99487.73
2022-12-28T13:13:40.008Z,99485.58
2022-12-28T13:18:58.303Z,99485.64
2022-12-28T13:24:06.058Z,99484.58
2022-12-28T13:29:16.988Z,99483.08
2022-12-28T13:34:26.930Z,99481.00
2022-12-28T13:39:41.612Z,99472.39
2022-12-28T13:44:55.070Z,99459.98
2022-12-28T13:50:06.664Z,99448.70
2022-12-28T13:55:18.101Z,99442.94
2022-12-28T14:00:27.197Z,99435.36
2022-12-28T14:05:35.122Z,99427.89
2022-12-28T14:10:43.345Z,99417.38
2022-12-28T14:15:52.518Z,99415.03
2022-12-28T14:21:01.177Z,99417.73
2022-12-28T14:26:19.593Z,99418.23
2022-12-28T14:31:31.178Z,99422.52
2022-12-28T14:36:43.657Z,99423.09
2022-12-28T14:41:51.495Z,99427.01
2022-12-28T14:46:59.464Z,99427.11
2022-12-28T14:52:39.116Z,99425.63
2022-12-28T14:57:48.778Z,99429.97
2022-12-28T15:02:56.770Z,99425.39
2022-12-28T15:08:05.009Z,99424.45
2022-12-28T15:13:13.341Z,99424.33
2022-12-28T15:18:20.950Z,99420.20
2022-12-28T15:23:28.282Z,99421.20
2022-12-28T15:28:35.577Z,99414.32
2022-12-28T15:33:43.251Z,99415.61
2022-12-28T15:38:51.238Z,99416.45
2022-12-28T15:43:58.390Z,99410.60
2022-12-28T15:49:04.533Z,99407.42
2022-12-28T15:54:12.316Z,99407.67
2022-12-28T15:59:19.676Z,99404.42
2022-12-28T16:04:27.071Z,99399.96
2022-12-28T16:09:34.473Z,99397.39
2022-12-28T16:14:43.120Z,99394.35
2022-12-28T16:19:50.297Z,99387.93
2022-12-28T16:24:57.523Z,99385.48
2022-12-28T16:30:06.005Z,99378.71
2022-12-28T16:35:15.727Z,99375.02
2022-12-28T16:40:23.253Z,99367.75
2022-12-28T16:45:33.280Z,99361.38
2022-12-28T16:50:41.079Z,99355.04
2022-12-28T16:55:48.491Z,99345.04
2022-12-28T17:00:55.864Z,99344.38
2022-12-28T17:06:03.207Z,99345.02
2022-12-28T17:11:12.470Z,99339.98
2022-12-28T17:16:20.169Z,99343.52
2022-12-28T17:21:27.590Z,99344.33
2022-12-28T17:26:35.635Z,99346.55
2022-12-28T17:31:43.647Z,99341.95
2022-12-28T17:36:51.304Z,99339.77
2022-12-28T17:41:58.610Z,99333.87
2022-12-28T17:47:04.343Z,99334.83
2022-12-28T17:52:13.759Z,99333.80
2022-12-28T17:57:21.467Z,99329.94
2022-12-28T18:02:29.059Z,99333.15
2022-12-28T18:07:37.161Z,99330.16
2022-12-28T18:12:45.004Z,99332.91
2022-12-28T18:17:52.393Z,99329.22
2022-12-28T18:23:00.206Z,99324.85
2022-12-28T18:28:08.439Z,99323.08
2022-12-28T18:33:16.766Z,99322.38
2022-12-28T18:38:24.472Z,99318.16
2022-12-28T18:43:31.672Z,99310.60
2022-12-28T18:48:41.441Z,99310.24
2022-12-28T18:53:50.685Z,99312.88
2022-12-28T18:58:59.255Z,99312.04
2022-12-28T19:04:08.185Z,99312.34
2022-12-28T19:09:17.920Z,99308.92
2022-12-28T19:14:25.887Z,99300.20
2022-12-28T19:19:33.305Z,99302.55
2022-12-28T19:24:40.605Z,99305.35
2022-12-28T19:29:50.888Z,99307.13
2022-12-28T19:34:58.131Z,99311.45
2022-12-28T19:48:36.487Z,99295.08
2022-12-28T19:53:42.141Z,99294.82
2022-12-28T19:58:49.805Z,99291.99
2022-12-28T20:03:59.593Z,99284.31
2022-12-28T20:09:06.945Z,99278.90
2022-12-28T20:14:21.634Z,99281.48
2022-12-28T20:19:32.103Z,99279.44
2022-12-28T20:24:39.530Z,99276.48
2022-12-28T20:29:45.659Z,99272.99
2022-12-28T20:34:53.004Z,99266.03
2022-12-28T20:40:01.138Z,99273.31
2022-12-28T20:45:10.785Z,99269.23
2022-12-28T20:50:18.415Z,99267.90
2022-12-28T20:55:25.848Z,99265.58
2022-12-28T21:00:33.053Z,99260.82
2022-12-28T21:05:40.885Z,99252.51
2022-12-28T21:10:51.280Z,99247.95
2022-12-28T21:15:59.516Z,99249.83
2022-12-28T21:21:08.126Z,99245.86
2022-12-28T21:26:18.371Z,99242.05
2022-12-28T21:31:25.539Z,99234.10
2022-12-28T21:36:31.131Z,99231.60
2022-12-28T21:41:51.022Z,99226.36
2022-12-28T21:46:58.173Z,99228.88
2022-12-28T21:52:05.957Z,99223.09
2022-12-28T21:57:14.889Z,99220.74
2022-12-28T22:02:55.056Z,99206.15
2022-12-28T22:08:16.524Z,99195.80
2022-12-28T22:13:24.909Z,99191.15
2022-12-28T22:19:01.072Z,99188.21
2022-12-28T22:23:58.418Z,99182.21
2022-12-28T22:29:05.534Z,99175.86
2022-12-28T22:34:11.360Z,99170.68
2022-12-28T22:39:19.765Z,99177.81
2022-12-28T22:44:25.626Z,99168.70
2022-12-28T22:49:33.248Z,99163.22
2022-12-28T22:54:40.561Z,99153.91
2022-12-28T22:59:48.215Z,99148.16
2022-12-28T23:04:54.030Z,99149.04
2022-12-28T23:10:01.553Z,99148.99
2022-12-28T23:15:19.892Z,99151.73
2022-12-28T23:20:45.417Z,99147.85
2022-12-28T23:26:10.628Z,99148.13
2022-12-28T23:31:18.206Z,99145.26
2022-12-28T23:36:25.519Z,99141.96
2022-12-28T23:41:51.213Z,99139.26
2022-12-28T23:46:59.557Z,99138.93
2022-12-28T23:52:07.968Z,99135.16
2022-12-28T23:57:15.133Z,99136.67
